sensor_id;sensor_type;location;lat;lon;timestamp;P1;durP1;ratioP1;P2;durP2;ratioP2
27225;SDS011;14732;51.074;3.788;2024-01-10T00:02:01;17.13;;;8.60;;
27225;SDS011;14732;51.074;3.788;2024-01-10T00:04:26;14.25;;;8.02;;
27225;SDS011;14732;51.074;3.788;2024-01-10T00:06:52;15.00;;;7.85;;
27225;SDS011;14732;51.074;3.788;2024-01-10T00:09:18;15.90;;;8.30;;
27225;SDS011;14732;51.074;3.788;2024-01-10T00:11:43;14.82;;;8.20;;
27225;SDS011;14732;51.074;3.788;2024-01-10T00:14:09;19.08;;;8.63;;
27225;SDS011;14732;51.074;3.788;2024-01-10T00:16:35;16.45;;;7.97;;
27225;SDS011;14732;51.074;3.788;2024-01-10T00:19:01;18.35;;;7.85;;
27225;SDS011;14732;51.074;3.788;2024-01-10T00:21:27;15.48;;;8.05;;
27225;SDS011;14732;51.074;3.788;2024-01-10T00:23:53;14.32;;;7.35;;
27225;SDS011;14732;51.074;3.788;2024-01-10T00:26:19;14.00;;;7.43;;
27225;SDS011;14732;51.074;3.788;2024-01-10T00:28:44;15.25;;;7.50;;
27225;SDS011;14732;51.074;3.788;2024-01-10T00:31:13;13.98;;;7.28;;
27225;SDS011;14732;51.074;3.788;2024-01-10T00:33:39;15.75;;;7.28;;
27225;SDS011;14732;51.074;3.788;2024-01-10T00:36:05;16.10;;;7.50;;
27225;SDS011;14732;51.074;3.788;2024-01-10T00:38:32;14.10;;;7.53;;
27225;SDS011;14732;51.074;3.788;2024-01-10T00:40:57;12.38;;;6.95;;
27225;SDS011;14732;51.074;3.788;2024-01-10T00:43:23;13.60;;;7.22;;
27225;SDS011;14732;51.074;3.788;2024-01-10T00:45:49;14.07;;;7.15;;
27225;SDS011;14732;51.074;3.788;2024-01-10T00:48:15;13.52;;;7.30;;
27225;SDS011;14732;51.074;3.788;2024-01-10T00:50:42;12.85;;;6.93;;
27225;SDS011;14732;51.074;3.788;2024-01-10T00:53:09;12.95;;;7.13;;
27225;SDS011;14732;51.074;3.788;2024-01-10T00:55:34;12.98;;;6.82;;
27225;SDS011;14732;51.074;3.788;2024-01-10T00:58:00;12.48;;;6.90;;
27225;SDS011;14732;51.074;3.788;2024-01-10T01:00:26;12.07;;;6.80;;
27225;SDS011;14732;51.074;3.788;2024-01-10T01:02:51;13.68;;;7.10;;
27225;SDS011;14732;51.074;3.788;2024-01-10T01:05:17;14.40;;;7.38;;
27225;SDS011;14732;51.074;3.788;2024-01-10T01:07:43;15.05;;;7.20;;
27225;SDS011;14732;51.074;3.788;2024-01-10T01:10:08;11.45;;;7.13;;
27225;SDS011;14732;51.074;3.788;2024-01-10T01:12:34;17.65;;;7.50;;
27225;SDS011;14732;51.074;3.788;2024-01-10T01:15:00;14.02;;;7.35;;
27225;SDS011;14732;51.074;3.788;2024-01-10T01:17:25;14.35;;;7.68;;
27225;SDS011;14732;51.074;3.788;2024-01-10T01:19:51;16.25;;;7.30;;
27225;SDS011;14732;51.074;3.788;2024-01-10T01:22:17;15.88;;;7.18;;
27225;SDS011;14732;51.074;3.788;2024-01-10T01:24:43;13.25;;;7.55;;
27225;SDS011;14732;51.074;3.788;2024-01-10T01:27:09;13.38;;;7.43;;
27225;SDS011;14732;51.074;3.788;2024-01-10T01:29:35;13.80;;;6.63;;
27225;SDS011;14732;51.074;3.788;2024-01-10T01:32:00;12.52;;;7.05;;
27225;SDS011;14732;51.074;3.788;2024-01-10T01:34:26;12.27;;;6.38;;
27225;SDS011;14732;51.074;3.788;2024-01-10T01:36:51;11.27;;;6.53;;
27225;SDS011;14732;51.074;3.788;2024-01-10T01:39:18;14.93;;;6.72;;
27225;SDS011;14732;51.074;3.788;2024-01-10T01:41:43;11.85;;;6.38;;
27225;SDS011;14732;51.074;3.788;2024-01-10T01:44:09;13.77;;;7.00;;
27225;SDS011;14732;51.074;3.788;2024-01-10T01:46:35;11.25;;;6.50;;
27225;SDS011;14732;51.074;3.788;2024-01-10T01:49:00;13.13;;;6.47;;
27225;SDS011;14732;51.074;3.788;2024-01-10T01:51:28;14.50;;;6.82;;
27225;SDS011;14732;51.074;3.788;2024-01-10T01:53:56;13.93;;;6.18;;
27225;SDS011;14732;51.074;3.788;2024-01-10T01:56:22;15.15;;;6.75;;
27225;SDS011;14732;51.074;3.788;2024-01-10T01:58:50;13.70;;;6.63;;
27225;SDS011;14732;51.074;3.788;2024-01-10T02:01:16;14.60;;;6.85;;
27225;SDS011;14732;51.074;3.788;2024-01-10T02:03:45;11.77;;;6.60;;
27225;SDS011;14732;51.074;3.788;2024-01-10T02:06:11;11.60;;;6.40;;
27225;SDS011;14732;51.074;3.788;2024-01-10T02:08:37;13.93;;;6.88;;
27225;SDS011;14732;51.074;3.788;2024-01-10T02:11:03;14.23;;;6.80;;
27225;SDS011;14732;51.074;3.788;2024-01-10T02:13:30;12.73;;;6.35;;
27225;SDS011;14732;51.074;3.788;2024-01-10T02:15:57;14.18;;;6.45;;
27225;SDS011;14732;51.074;3.788;2024-01-10T02:18:24;14.68;;;6.93;;
27225;SDS011;14732;51.074;3.788;2024-01-10T02:20:50;13.32;;;6.25;;
27225;SDS011;14732;51.074;3.788;2024-01-10T02:23:17;10.73;;;6.50;;
27225;SDS011;14732;51.074;3.788;2024-01-10T02:25:43;11.77;;;5.88;;
27225;SDS011;14732;51.074;3.788;2024-01-10T02:28:09;11.60;;;6.20;;
27225;SDS011;14732;51.074;3.788;2024-01-10T02:30:35;13.35;;;6.13;;
27225;SDS011;14732;51.074;3.788;2024-01-10T02:33:01;13.23;;;5.72;;
27225;SDS011;14732;51.074;3.788;2024-01-10T02:35:27;12.15;;;6.80;;
27225;SDS011;14732;51.074;3.788;2024-01-10T02:37:53;12.57;;;5.85;;
27225;SDS011;14732;51.074;3.788;2024-01-10T02:40:20;14.02;;;6.32;;
27225;SDS011;14732;51.074;3.788;2024-01-10T02:42:46;14.25;;;6.10;;
27225;SDS011;14732;51.074;3.788;2024-01-10T02:45:12;11.38;;;6.20;;
27225;SDS011;14732;51.074;3.788;2024-01-10T02:47:37;13.80;;;6.47;;
27225;SDS011;14732;51.074;3.788;2024-01-10T02:50:04;11.30;;;5.88;;
27225;SDS011;14732;51.074;3.788;2024-01-10T02:52:30;13.45;;;6.10;;
27225;SDS011;14732;51.074;3.788;2024-01-10T02:54:56;10.68;;;6.13;;
27225;SDS011;14732;51.074;3.788;2024-01-10T02:57:21;11.70;;;6.18;;
27225;SDS011;14732;51.074;3.788;2024-01-10T02:59:47;12.63;;;6.32;;
27225;SDS011;14732;51.074;3.788;2024-01-10T03:02:13;11.65;;;6.80;;
27225;SDS011;14732;51.074;3.788;2024-01-10T03:04:39;13.35;;;6.50;;
27225;SDS011;14732;51.074;3.788;2024-01-10T03:07:05;12.85;;;6.10;;
27225;SDS011;14732;51.074;3.788;2024-01-10T03:09:30;10.88;;;6.35;;
27225;SDS011;14732;51.074;3.788;2024-01-10T03:11:56;16.75;;;6.57;;
27225;SDS011;14732;51.074;3.788;2024-01-10T03:14:22;12.38;;;6.13;;
27225;SDS011;14732;51.074;3.788;2024-01-10T03:16:47;12.80;;;6.30;;
27225;SDS011;14732;51.074;3.788;2024-01-10T03:19:13;10.60;;;6.43;;
27225;SDS011;14732;51.074;3.788;2024-01-10T03:21:40;12.52;;;5.97;;
27225;SDS011;14732;51.074;3.788;2024-01-10T03:24:05;11.40;;;6.22;;
27225;SDS011;14732;51.074;3.788;2024-01-10T03:26:31;12.25;;;6.32;;
27225;SDS011;14732;51.074;3.788;2024-01-10T03:28:57;13.23;;;6.93;;
27225;SDS011;14732;51.074;3.788;2024-01-10T03:31:23;11.82;;;6.30;;
27225;SDS011;14732;51.074;3.788;2024-01-10T03:33:48;11.90;;;5.82;;
27225;SDS011;14732;51.074;3.788;2024-01-10T03:36:15;10.50;;;5.70;;
27225;SDS011;14732;51.074;3.788;2024-01-10T03:38:42;14.13;;;5.70;;
27225;SDS011;14732;51.074;3.788;2024-01-10T03:41:18;10.65;;;6.03;;
27225;SDS011;14732;51.074;3.788;2024-01-10T03:43:45;15.88;;;6.30;;
27225;SDS011;14732;51.074;3.788;2024-01-10T03:46:11;10.95;;;5.78;;
27225;SDS011;14732;51.074;3.788;2024-01-10T03:48:37;10.35;;;6.10;;
27225;SDS011;14732;51.074;3.788;2024-01-10T03:51:12;10.68;;;5.97;;
27225;SDS011;14732;51.074;3.788;2024-01-10T03:53:38;11.82;;;6.10;;
27225;SDS011;14732;51.074;3.788;2024-01-10T03:56:04;11.23;;;6.07;;
27225;SDS011;14732;51.074;3.788;2024-01-10T03:58:30;15.50;;;6.15;;
27225;SDS011;14732;51.074;3.788;2024-01-10T04:00:56;12.15;;;6.18;;
27225;SDS011;14732;51.074;3.788;2024-01-10T04:03:21;11.55;;;6.10;;
27225;SDS011;14732;51.074;3.788;2024-01-10T04:05:47;12.00;;;5.60;;
27225;SDS011;14732;51.074;3.788;2024-01-10T04:08:13;12.20;;;5.88;;
27225;SDS011;14732;51.074;3.788;2024-01-10T04:10:38;8.43;;;5.28;;
27225;SDS011;14732;51.074;3.788;2024-01-10T04:13:04;10.68;;;5.63;;
27225;SDS011;14732;51.074;3.788;2024-01-10T04:15:29;12.15;;;5.78;;
27225;SDS011;14732;51.074;3.788;2024-01-10T04:17:55;12.70;;;5.53;;
27225;SDS011;14732;51.074;3.788;2024-01-10T04:20:21;12.60;;;5.75;;
27225;SDS011;14732;51.074;3.788;2024-01-10T04:22:46;10.38;;;5.45;;
27225;SDS011;14732;51.074;3.788;2024-01-10T04:25:12;13.88;;;5.70;;
27225;SDS011;14732;51.074;3.788;2024-01-10T04:27:38;9.00;;;5.28;;
27225;SDS011;14732;51.074;3.788;2024-01-10T04:30:04;9.65;;;5.20;;
27225;SDS011;14732;51.074;3.788;2024-01-10T04:32:30;10.07;;;5.63;;
27225;SDS011;14732;51.074;3.788;2024-01-10T04:34:56;10.50;;;5.70;;
27225;SDS011;14732;51.074;3.788;2024-01-10T04:37:21;9.80;;;5.40;;
27225;SDS011;14732;51.074;3.788;2024-01-10T04:39:47;9.48;;;5.20;;
27225;SDS011;14732;51.074;3.788;2024-01-10T04:42:13;11.20;;;5.30;;
27225;SDS011;14732;51.074;3.788;2024-01-10T04:44:39;10.52;;;5.35;;
27225;SDS011;14732;51.074;3.788;2024-01-10T04:47:05;15.48;;;5.95;;
27225;SDS011;14732;51.074;3.788;2024-01-10T04:49:30;14.25;;;5.65;;
27225;SDS011;14732;51.074;3.788;2024-01-10T04:51:56;10.75;;;5.47;;
27225;SDS011;14732;51.074;3.788;2024-01-10T04:54:22;11.80;;;5.35;;
27225;SDS011;14732;51.074;3.788;2024-01-10T04:56:48;11.52;;;5.85;;
27225;SDS011;14732;51.074;3.788;2024-01-10T04:59:13;8.43;;;5.07;;
27225;SDS011;14732;51.074;3.788;2024-01-10T05:01:39;11.10;;;5.82;;
27225;SDS011;14732;51.074;3.788;2024-01-10T05:04:05;10.98;;;5.60;;
27225;SDS011;14732;51.074;3.788;2024-01-10T05:06:31;11.15;;;5.40;;
27225;SDS011;14732;51.074;3.788;2024-01-10T05:08:57;9.82;;;5.05;;
27225;SDS011;14732;51.074;3.788;2024-01-10T05:11:23;9.73;;;5.07;;
27225;SDS011;14732;51.074;3.788;2024-01-10T05:13:50;11.55;;;5.32;;
27225;SDS011;14732;51.074;3.788;2024-01-10T05:16:16;13.55;;;5.32;;
27225;SDS011;14732;51.074;3.788;2024-01-10T05:18:42;9.20;;;5.13;;
27225;SDS011;14732;51.074;3.788;2024-01-10T05:21:08;9.25;;;4.97;;
27225;SDS011;14732;51.074;3.788;2024-01-10T05:23:33;9.38;;;5.10;;
27225;SDS011;14732;51.074;3.788;2024-01-10T05:25:59;12.38;;;5.10;;
27225;SDS011;14732;51.074;3.788;2024-01-10T05:28:25;12.13;;;5.82;;
27225;SDS011;14732;51.074;3.788;2024-01-10T05:30:50;9.40;;;5.10;;
27225;SDS011;14732;51.074;3.788;2024-01-10T05:33:16;10.85;;;5.63;;
27225;SDS011;14732;51.074;3.788;2024-01-10T05:35:42;12.20;;;5.57;;
27225;SDS011;14732;51.074;3.788;2024-01-10T05:38:07;12.20;;;5.75;;
27225;SDS011;14732;51.074;3.788;2024-01-10T05:40:33;12.70;;;5.25;;
27225;SDS011;14732;51.074;3.788;2024-01-10T05:42:58;9.68;;;5.20;;
27225;SDS011;14732;51.074;3.788;2024-01-10T05:45:24;11.82;;;5.82;;
27225;SDS011;14732;51.074;3.788;2024-01-10T05:47:50;9.85;;;5.43;;
27225;SDS011;14732;51.074;3.788;2024-01-10T05:50:16;8.82;;;5.20;;
27225;SDS011;14732;51.074;3.788;2024-01-10T05:52:42;10.43;;;5.38;;
27225;SDS011;14732;51.074;3.788;2024-01-10T05:55:08;13.07;;;5.40;;
27225;SDS011;14732;51.074;3.788;2024-01-10T05:57:35;10.02;;;5.25;;
27225;SDS011;14732;51.074;3.788;2024-01-10T06:02:34;9.68;;;5.70;;
27225;SDS011;14732;51.074;3.788;2024-01-10T06:07:33;10.90;;;5.65;;
27225;SDS011;14732;51.074;3.788;2024-01-10T06:09:59;10.70;;;5.88;;
27225;SDS011;14732;51.074;3.788;2024-01-10T06:12:26;9.35;;;5.70;;
27225;SDS011;14732;51.074;3.788;2024-01-10T06:14:52;9.85;;;5.38;;
27225;SDS011;14732;51.074;3.788;2024-01-10T06:17:17;10.52;;;5.65;;
27225;SDS011;14732;51.074;3.788;2024-01-10T06:19:43;12.00;;;6.20;;
27225;SDS011;14732;51.074;3.788;2024-01-10T06:22:09;12.40;;;6.05;;
27225;SDS011;14732;51.074;3.788;2024-01-10T06:24:36;9.68;;;5.20;;
27225;SDS011;14732;51.074;3.788;2024-01-10T06:27:03;11.60;;;5.93;;
27225;SDS011;14732;51.074;3.788;2024-01-10T06:29:29;10.65;;;5.75;;
27225;SDS011;14732;51.074;3.788;2024-01-10T06:31:55;11.10;;;5.65;;
27225;SDS011;14732;51.074;3.788;2024-01-10T06:34:22;10.15;;;5.72;;
27225;SDS011;14732;51.074;3.788;2024-01-10T06:36:48;11.07;;;5.82;;
27225;SDS011;14732;51.074;3.788;2024-01-10T06:39:13;14.82;;;5.95;;
27225;SDS011;14732;51.074;3.788;2024-01-10T06:41:40;9.55;;;5.68;;
27225;SDS011;14732;51.074;3.788;2024-01-10T06:44:07;11.95;;;5.75;;
27225;SDS011;14732;51.074;3.788;2024-01-10T06:46:33;10.82;;;6.00;;
27225;SDS011;14732;51.074;3.788;2024-01-10T06:48:59;11.57;;;5.57;;
27225;SDS011;14732;51.074;3.788;2024-01-10T06:51:24;14.32;;;6.15;;
27225;SDS011;14732;51.074;3.788;2024-01-10T06:53:51;11.40;;;5.75;;
27225;SDS011;14732;51.074;3.788;2024-01-10T06:56:17;14.88;;;6.15;;
27225;SDS011;14732;51.074;3.788;2024-01-10T06:58:43;20.70;;;6.55;;
27225;SDS011;14732;51.074;3.788;2024-01-10T07:01:12;10.48;;;5.70;;
27225;SDS011;14732;51.074;3.788;2024-01-10T07:03:39;9.82;;;5.50;;
27225;SDS011;14732;51.074;3.788;2024-01-10T07:06:05;11.23;;;5.60;;
27225;SDS011;14732;51.074;3.788;2024-01-10T07:08:30;11.77;;;6.65;;
27225;SDS011;14732;51.074;3.788;2024-01-10T07:10:56;14.05;;;6.85;;
27225;SDS011;14732;51.074;3.788;2024-01-10T07:13:22;12.95;;;6.20;;
27225;SDS011;14732;51.074;3.788;2024-01-10T07:15:48;13.15;;;6.13;;
27225;SDS011;14732;51.074;3.788;2024-01-10T07:18:16;13.88;;;6.60;;
27225;SDS011;14732;51.074;3.788;2024-01-10T07:20:42;13.02;;;6.28;;
27225;SDS011;14732;51.074;3.788;2024-01-10T07:23:07;14.75;;;6.43;;
27225;SDS011;14732;51.074;3.788;2024-01-10T07:25:33;15.23;;;6.85;;
27225;SDS011;14732;51.074;3.788;2024-01-10T07:27:59;11.23;;;6.60;;
27225;SDS011;14732;51.074;3.788;2024-01-10T07:30:26;12.95;;;6.85;;
27225;SDS011;14732;51.074;3.788;2024-01-10T07:32:52;13.00;;;7.32;;
27225;SDS011;14732;51.074;3.788;2024-01-10T07:35:17;14.05;;;7.00;;
27225;SDS011;14732;51.074;3.788;2024-01-10T07:37:43;12.38;;;6.97;;
27225;SDS011;14732;51.074;3.788;2024-01-10T07:40:09;12.60;;;6.53;;
27225;SDS011;14732;51.074;3.788;2024-01-10T07:42:38;13.50;;;6.88;;
27225;SDS011;14732;51.074;3.788;2024-01-10T07:45:05;14.18;;;6.95;;
27225;SDS011;14732;51.074;3.788;2024-01-10T07:47:31;11.13;;;6.22;;
27225;SDS011;14732;51.074;3.788;2024-01-10T07:49:57;12.80;;;6.05;;
27225;SDS011;14732;51.074;3.788;2024-01-10T07:52:23;11.93;;;6.13;;
27225;SDS011;14732;51.074;3.788;2024-01-10T07:54:49;11.75;;;6.25;;
27225;SDS011;14732;51.074;3.788;2024-01-10T07:57:14;14.15;;;6.50;;
27225;SDS011;14732;51.074;3.788;2024-01-10T07:59:43;13.60;;;6.47;;
27225;SDS011;14732;51.074;3.788;2024-01-10T08:02:09;13.80;;;6.25;;
27225;SDS011;14732;51.074;3.788;2024-01-10T08:04:35;14.52;;;6.40;;
27225;SDS011;14732;51.074;3.788;2024-01-10T08:07:01;13.23;;;6.60;;
27225;SDS011;14732;51.074;3.788;2024-01-10T08:09:26;13.13;;;6.65;;
27225;SDS011;14732;51.074;3.788;2024-01-10T08:11:52;14.10;;;6.82;;
27225;SDS011;14732;51.074;3.788;2024-01-10T08:14:18;13.18;;;6.93;;
27225;SDS011;14732;51.074;3.788;2024-01-10T08:16:43;11.15;;;6.50;;
27225;SDS011;14732;51.074;3.788;2024-01-10T08:19:09;12.45;;;6.57;;
27225;SDS011;14732;51.074;3.788;2024-01-10T08:21:36;14.13;;;6.70;;
27225;SDS011;14732;51.074;3.788;2024-01-10T08:24:02;14.20;;;6.45;;
27225;SDS011;14732;51.074;3.788;2024-01-10T08:26:28;14.43;;;7.28;;
27225;SDS011;14732;51.074;3.788;2024-01-10T08:28:54;15.95;;;6.82;;
27225;SDS011;14732;51.074;3.788;2024-01-10T08:31:20;18.63;;;7.88;;
27225;SDS011;14732;51.074;3.788;2024-01-10T08:33:45;23.52;;;9.57;;
27225;SDS011;14732;51.074;3.788;2024-01-10T08:36:12;13.07;;;6.97;;
27225;SDS011;14732;51.074;3.788;2024-01-10T08:38:39;18.08;;;7.13;;
27225;SDS011;14732;51.074;3.788;2024-01-10T08:41:07;14.48;;;7.50;;
27225;SDS011;14732;51.074;3.788;2024-01-10T08:43:33;13.38;;;7.63;;
27225;SDS011;14732;51.074;3.788;2024-01-10T08:45:59;14.25;;;7.95;;
27225;SDS011;14732;51.074;3.788;2024-01-10T08:48:25;13.13;;;6.55;;
27225;SDS011;14732;51.074;3.788;2024-01-10T08:50:51;14.18;;;6.80;;
27225;SDS011;14732;51.074;3.788;2024-01-10T08:53:16;12.30;;;7.10;;
27225;SDS011;14732;51.074;3.788;2024-01-10T08:55:42;14.13;;;7.10;;
27225;SDS011;14732;51.074;3.788;2024-01-10T08:58:08;11.50;;;6.43;;
27225;SDS011;14732;51.074;3.788;2024-01-10T09:00:33;12.77;;;6.75;;
27225;SDS011;14732;51.074;3.788;2024-01-10T09:03:00;16.95;;;7.15;;
27225;SDS011;14732;51.074;3.788;2024-01-10T09:05:26;12.57;;;6.65;;
27225;SDS011;14732;51.074;3.788;2024-01-10T09:07:51;15.15;;;6.47;;
27225;SDS011;14732;51.074;3.788;2024-01-10T09:10:19;11.88;;;6.40;;
27225;SDS011;14732;51.074;3.788;2024-01-10T09:12:46;11.90;;;6.32;;
27225;SDS011;14732;51.074;3.788;2024-01-10T09:15:12;11.95;;;6.47;;
27225;SDS011;14732;51.074;3.788;2024-01-10T09:17:42;13.32;;;6.60;;
27225;SDS011;14732;51.074;3.788;2024-01-10T09:20:08;13.50;;;6.13;;
27225;SDS011;14732;51.074;3.788;2024-01-10T09:22:35;13.00;;;6.50;;
27225;SDS011;14732;51.074;3.788;2024-01-10T09:25:03;12.68;;;5.97;;
27225;SDS011;14732;51.074;3.788;2024-01-10T09:27:30;10.90;;;6.25;;
27225;SDS011;14732;51.074;3.788;2024-01-10T09:29:56;13.55;;;5.90;;
27225;SDS011;14732;51.074;3.788;2024-01-10T09:32:22;13.50;;;5.88;;
27225;SDS011;14732;51.074;3.788;2024-01-10T09:34:48;13.60;;;7.05;;
27225;SDS011;14732;51.074;3.788;2024-01-10T09:37:13;16.55;;;7.05;;
27225;SDS011;14732;51.074;3.788;2024-01-10T09:39:39;16.73;;;7.72;;
27225;SDS011;14732;51.074;3.788;2024-01-10T09:42:04;14.43;;;7.15;;
27225;SDS011;14732;51.074;3.788;2024-01-10T09:44:31;15.25;;;7.60;;
27225;SDS011;14732;51.074;3.788;2024-01-10T09:46:58;16.23;;;7.05;;
27225;SDS011;14732;51.074;3.788;2024-01-10T09:49:24;14.45;;;6.70;;
27225;SDS011;14732;51.074;3.788;2024-01-10T09:51:53;13.93;;;6.53;;
27225;SDS011;14732;51.074;3.788;2024-01-10T09:54:24;13.40;;;7.10;;
27225;SDS011;14732;51.074;3.788;2024-01-10T09:56:51;18.55;;;7.00;;
27225;SDS011;14732;51.074;3.788;2024-01-10T09:59:18;20.45;;;7.03;;
27225;SDS011;14732;51.074;3.788;2024-01-10T10:01:43;13.85;;;7.07;;
27225;SDS011;14732;51.074;3.788;2024-01-10T10:04:11;15.23;;;6.95;;
27225;SDS011;14732;51.074;3.788;2024-01-10T10:06:37;14.43;;;6.18;;
27225;SDS011;14732;51.074;3.788;2024-01-10T10:09:03;13.13;;;6.38;;
27225;SDS011;14732;51.074;3.788;2024-01-10T10:11:29;12.20;;;6.28;;
27225;SDS011;14732;51.074;3.788;2024-01-10T10:13:55;15.05;;;6.57;;
27225;SDS011;14732;51.074;3.788;2024-01-10T10:16:24;13.85;;;6.50;;
27225;SDS011;14732;51.074;3.788;2024-01-10T10:18:51;13.80;;;6.75;;
27225;SDS011;14732;51.074;3.788;2024-01-10T10:21:22;15.50;;;6.07;;
27225;SDS011;14732;51.074;3.788;2024-01-10T10:24:01;15.57;;;6.93;;
27225;SDS011;14732;51.074;3.788;2024-01-10T10:26:29;13.38;;;6.13;;
27225;SDS011;14732;51.074;3.788;2024-01-10T10:28:57;15.65;;;6.45;;
27225;SDS011;14732;51.074;3.788;2024-01-10T10:31:23;13.73;;;6.50;;
27225;SDS011;14732;51.074;3.788;2024-01-10T10:33:50;11.65;;;6.45;;
27225;SDS011;14732;51.074;3.788;2024-01-10T10:36:16;13.70;;;6.50;;
27225;SDS011;14732;51.074;3.788;2024-01-10T10:38:42;12.63;;;6.60;;
27225;SDS011;14732;51.074;3.788;2024-01-10T10:41:08;13.43;;;6.97;;
27225;SDS011;14732;51.074;3.788;2024-01-10T10:43:35;16.65;;;7.65;;
27225;SDS011;14732;51.074;3.788;2024-01-10T10:46:02;12.98;;;6.60;;
27225;SDS011;14732;51.074;3.788;2024-01-10T10:48:33;14.90;;;6.93;;
27225;SDS011;14732;51.074;3.788;2024-01-10T10:53:37;15.02;;;7.53;;
27225;SDS011;14732;51.074;3.788;2024-01-10T10:56:05;17.95;;;6.95;;
27225;SDS011;14732;51.074;3.788;2024-01-10T10:58:36;14.38;;;7.07;;
27225;SDS011;14732;51.074;3.788;2024-01-10T11:01:07;13.82;;;7.35;;
27225;SDS011;14732;51.074;3.788;2024-01-10T11:03:34;13.93;;;7.20;;
27225;SDS011;14732;51.074;3.788;2024-01-10T11:06:02;16.13;;;7.30;;
27225;SDS011;14732;51.074;3.788;2024-01-10T11:08:30;17.13;;;7.60;;
27225;SDS011;14732;51.074;3.788;2024-01-10T11:11:04;17.23;;;7.90;;
27225;SDS011;14732;51.074;3.788;2024-01-10T11:16:40;14.13;;;7.47;;
27225;SDS011;14732;51.074;3.788;2024-01-10T11:22:43;14.60;;;7.57;;
27225;SDS011;14732;51.074;3.788;2024-01-10T11:25:29;14.55;;;6.80;;
27225;SDS011;14732;51.074;3.788;2024-01-10T11:27:55;14.25;;;7.32;;
27225;SDS011;14732;51.074;3.788;2024-01-10T11:30:37;16.92;;;7.57;;
27225;SDS011;14732;51.074;3.788;2024-01-10T11:33:23;11.95;;;6.57;;
27225;SDS011;14732;51.074;3.788;2024-01-10T11:36:09;13.43;;;7.13;;
27225;SDS011;14732;51.074;3.788;2024-01-10T11:38:53;14.38;;;7.40;;
27225;SDS011;14732;51.074;3.788;2024-01-10T11:46:35;13.82;;;7.07;;
27225;SDS011;14732;51.074;3.788;2024-01-10T11:49:03;15.82;;;7.75;;
27225;SDS011;14732;51.074;3.788;2024-01-10T11:51:31;16.23;;;7.67;;
27225;SDS011;14732;51.074;3.788;2024-01-10T11:53:57;16.65;;;7.57;;
27225;SDS011;14732;51.074;3.788;2024-01-10T11:56:23;18.17;;;7.30;;
27225;SDS011;14732;51.074;3.788;2024-01-10T11:59:07;17.17;;;7.63;;
27225;SDS011;14732;51.074;3.788;2024-01-10T12:01:35;14.90;;;7.07;;
27225;SDS011;14732;51.074;3.788;2024-01-10T12:04:01;16.13;;;7.85;;
27225;SDS011;14732;51.074;3.788;2024-01-10T12:06:29;18.98;;;8.93;;
27225;SDS011;14732;51.074;3.788;2024-01-10T12:08:55;20.20;;;9.38;;
27225;SDS011;14732;51.074;3.788;2024-01-10T12:11:20;25.45;;;10.32;;
27225;SDS011;14732;51.074;3.788;2024-01-10T12:13:47;16.85;;;8.23;;
27225;SDS011;14732;51.074;3.788;2024-01-10T12:16:13;19.73;;;9.40;;
27225;SDS011;14732;51.074;3.788;2024-01-10T12:18:39;20.27;;;8.23;;
27225;SDS011;14732;51.074;3.788;2024-01-10T12:21:05;19.55;;;7.70;;
27225;SDS011;14732;51.074;3.788;2024-01-10T12:23:30;14.57;;;7.00;;
27225;SDS011;14732;51.074;3.788;2024-01-10T12:26:03;9.80;;;4.32;;
27225;SDS011;14732;51.074;3.788;2024-01-10T12:28:30;14.30;;;7.90;;
27225;SDS011;14732;51.074;3.788;2024-01-10T12:30:56;18.23;;;7.60;;
27225;SDS011;14732;51.074;3.788;2024-01-10T12:33:22;15.75;;;8.07;;
27225;SDS011;14732;51.074;3.788;2024-01-10T12:36:07;11.80;;;6.03;;
27225;SDS011;14732;51.074;3.788;2024-01-10T12:38:40;14.05;;;6.97;;
27225;SDS011;14732;51.074;3.788;2024-01-10T12:41:06;17.08;;;7.25;;
27225;SDS011;14732;51.074;3.788;2024-01-10T12:43:34;15.82;;;7.43;;
27225;SDS011;14732;51.074;3.788;2024-01-10T12:46:03;15.68;;;7.65;;
27225;SDS011;14732;51.074;3.788;2024-01-10T12:48:37;16.35;;;7.45;;
27225;SDS011;14732;51.074;3.788;2024-01-10T12:51:10;16.13;;;7.63;;
27225;SDS011;14732;51.074;3.788;2024-01-10T12:53:43;13.15;;;7.32;;
27225;SDS011;14732;51.074;3.788;2024-01-10T12:56:09;19.35;;;7.13;;
27225;SDS011;14732;51.074;3.788;2024-01-10T12:58:39;14.40;;;7.05;;
27225;SDS011;14732;51.074;3.788;2024-01-10T13:01:10;20.15;;;7.82;;
27225;SDS011;14732;51.074;3.788;2024-01-10T13:03:37;15.23;;;7.85;;
27225;SDS011;14732;51.074;3.788;2024-01-10T13:06:03;19.38;;;7.80;;
27225;SDS011;14732;51.074;3.788;2024-01-10T13:08:29;21.83;;;8.10;;
27225;SDS011;14732;51.074;3.788;2024-01-10T13:10:54;18.23;;;7.57;;
27225;SDS011;14732;51.074;3.788;2024-01-10T13:13:20;14.88;;;7.40;;
27225;SDS011;14732;51.074;3.788;2024-01-10T13:15:47;15.52;;;7.38;;
27225;SDS011;14732;51.074;3.788;2024-01-10T13:18:13;18.55;;;8.27;;
27225;SDS011;14732;51.074;3.788;2024-01-10T13:20:40;15.90;;;7.63;;
27225;SDS011;14732;51.074;3.788;2024-01-10T13:23:06;17.77;;;8.15;;
27225;SDS011;14732;51.074;3.788;2024-01-10T13:25:32;15.30;;;7.93;;
27225;SDS011;14732;51.074;3.788;2024-01-10T13:27:59;15.95;;;7.95;;
27225;SDS011;14732;51.074;3.788;2024-01-10T13:30:26;21.88;;;9.02;;
27225;SDS011;14732;51.074;3.788;2024-01-10T13:32:51;16.05;;;7.88;;
27225;SDS011;14732;51.074;3.788;2024-01-10T13:35:17;21.42;;;8.43;;
27225;SDS011;14732;51.074;3.788;2024-01-10T13:37:43;22.15;;;10.27;;
27225;SDS011;14732;51.074;3.788;2024-01-10T13:40:12;25.77;;;10.90;;
27225;SDS011;14732;51.074;3.788;2024-01-10T13:42:38;22.67;;;10.65;;
27225;SDS011;14732;51.074;3.788;2024-01-10T13:45:05;19.60;;;9.35;;
27225;SDS011;14732;51.074;3.788;2024-01-10T13:47:32;19.55;;;8.30;;
27225;SDS011;14732;51.074;3.788;2024-01-10T13:50:00;17.77;;;7.93;;
27225;SDS011;14732;51.074;3.788;2024-01-10T13:52:28;17.90;;;8.82;;
27225;SDS011;14732;51.074;3.788;2024-01-10T13:54:54;24.98;;;9.57;;
27225;SDS011;14732;51.074;3.788;2024-01-10T13:57:21;17.40;;;8.23;;
27225;SDS011;14732;51.074;3.788;2024-01-10T13:59:46;15.70;;;9.10;;
27225;SDS011;14732;51.074;3.788;2024-01-10T14:02:12;19.33;;;8.45;;
27225;SDS011;14732;51.074;3.788;2024-01-10T14:04:39;16.33;;;8.75;;
27225;SDS011;14732;51.074;3.788;2024-01-10T14:07:06;16.05;;;8.32;;
27225;SDS011;14732;51.074;3.788;2024-01-10T14:09:31;16.98;;;9.52;;
27225;SDS011;14732;51.074;3.788;2024-01-10T14:11:57;21.48;;;10.25;;
27225;SDS011;14732;51.074;3.788;2024-01-10T14:14:23;30.88;;;15.10;;
27225;SDS011;14732;51.074;3.788;2024-01-10T14:16:48;22.80;;;9.27;;
27225;SDS011;14732;51.074;3.788;2024-01-10T14:19:14;17.23;;;7.93;;
27225;SDS011;14732;51.074;3.788;2024-01-10T14:21:43;16.90;;;7.90;;
27225;SDS011;14732;51.074;3.788;2024-01-10T14:24:10;16.77;;;8.25;;
27225;SDS011;14732;51.074;3.788;2024-01-10T14:26:36;18.05;;;7.97;;
27225;SDS011;14732;51.074;3.788;2024-01-10T14:29:02;21.55;;;8.52;;
27225;SDS011;14732;51.074;3.788;2024-01-10T14:31:28;18.33;;;7.07;;
27225;SDS011;14732;51.074;3.788;2024-01-10T14:33:54;18.27;;;8.27;;
27225;SDS011;14732;51.074;3.788;2024-01-10T14:36:19;18.98;;;8.20;;
27225;SDS011;14732;51.074;3.788;2024-01-10T14:38:46;16.15;;;8.18;;
27225;SDS011;14732;51.074;3.788;2024-01-10T14:41:11;19.10;;;8.55;;
27225;SDS011;14732;51.074;3.788;2024-01-10T14:43:37;17.23;;;7.10;;
27225;SDS011;14732;51.074;3.788;2024-01-10T14:46:03;15.93;;;8.05;;
27225;SDS011;14732;51.074;3.788;2024-01-10T14:48:32;21.42;;;8.52;;
27225;SDS011;14732;51.074;3.788;2024-01-10T14:50:59;16.67;;;8.15;;
27225;SDS011;14732;51.074;3.788;2024-01-10T14:53:29;16.83;;;7.65;;